« Back
NWS Peachtree City, Ga » Text Product » ATL Terminal Aerodrome Forecast


Printer-friendly Version
Current Version              Previous Versions:   1  2  3  4  5  6  7  8  9  

Terminal Aerodrome Forecast

463
FTUS42 KFFC 242100 AAB
TAFATL
TAF AMD
KATL 242145Z 2422/2524 20008KT P6SM SCT070
     FM250000 16006KT P6SM BKN060
     FM250900 20007KT P6SM BKN050
     FM251200 23010KT P6SM SCT025 BKN050
     FM251500 24010G18KT P6SM BKN025
     FM251800 27012G20KT P6SM SCT040=

USA.gov is the U.S. government's official web portal to all federal, state and local government web resources and services.